| Place | Name | Time | Raw score | Score |
|---|---|---|---|---|
| 1 | cerberus❤ | 1:25.62 | 1,000 | 464 |
| 2 | Brionac | 1:25.80 | 900 | 418 |
| 3 | -DarkLlama- | 1:27.01 | 859 | 399 |
| 4 | Predatory_Balloon | 1:28.41 | 827 | 384 |
| 5 | Jay2a | 1:28.61 | 800 | 371 |
| 6 | Terrapin | 1:30.24 | 777 | 361 |
| 7 | JnvSor | 1:31.00 | 756 | 351 |
| 8 | Haunted Pleb | 1:32.60 | 736 | 342 |
| 9 | ✪ Paradox | 1:32.79 | 718 | 333 |
| 10 | Erik | 1:33.04 | 700 | 325 |
| 11 | DasGerippe | 1:33.11 | 684 | 317 |
| 12 | Zany | 1:33.63 | 669 | 310 |
| 13 | Bile | 1:33.84 | 654 | 303 |
| 14 | Waonder | 1:33.91 | 640 | 297 |
| 15 | Tribow | 1:34.02 | 626 | 290 |
| 16 | fentanyl lover <3 | 1:34.96 | 613 | 284 |
| 17 | slug ʕ●.●ʔ | 1:35.33 | 600 | 278 |
| 18 | Ohnoitsmangofett | 1:35.79 | 588 | 273 |
| 19 | Mei Rummy-chan | 1:35.85 | 576 | 267 |
| 20 | XiQu3sT | 1:35.92 | 565 | 262 |
| 21 | PinesOfChaos | 1:36.50 | 553 | 257 |
| 22 | [RYC] Robin Yrvriff | 1:36.70 | 542 | 251 |
| 23 | Aiko | 1:36.82 | 531 | 246 |
| 24 | Thermos | 1:36.87 | 521 | 242 |
| 25 | Bridge | 1:37.04 | 511 | 237 |
| 26 | i0nTempest | 1:37.13 | 500 | 232 |
| 27 | Maxter Max | 1:37.19 | 491 | 228 |
| 28 | Azure Zakura | 1:37.25 | 481 | 223 |
| 29 | Blu3 | 1:37.66 | 471 | 219 |
| 30 | G5TNo2486 | 1:38.11 | 462 | 214 |
| 31 | Hayden | 1:38.15 | 453 | 210 |
| 32 | Tenor | 1:38.18 | 444 | 206 |
| 33 | Hazylina | 1:38.23 | 435 | 202 |
| 34 | Hotride | 1:38.30 | 426 | 198 |
| 35 | NyctoGT | 1:38.34 | 417 | 193 |
| 35 | levinv270 | 1:38.34 | 417 | 193 |
| 37 | Latapi | 1:38.40 | 400 | 186 |
| 38 | PlatinumAstra | 1:38.56 | 392 | 182 |
| 39 | Puma D. Ace | 1:38.58 | 384 | 178 |
| 40 | Blahaj Blast | 1:38.59 | 376 | 174 |
| 41 | EzraW118 | 1:38.63 | 368 | 171 |
| 42 | pandu | 1:38.76 | 360 | 167 |
| 43 | Big Bootiecoot | 1:38.86 | 352 | 163 |
| 44 | Rayne Hellfire | 1:38.89 | 345 | 160 |
| 45 | xanthousphoenix | 1:39.02 | 337 | 156 |
| 45 | Poi | 1:39.02 | 337 | 156 |
| 47 | Hijacker02 | 1:39.04 | 322 | 149 |
| 48 | Californ1a | 1:39.09 | 315 | 146 |
| 49 | ShotgunSalad | 1:39.15 | 308 | 143 |
| 50 | Hirochi | 1:39.17 | 300 | 139 |
| 51 | SEVEN | 1:39.22 | 293 | 136 |
| 52 | Cultured | 1:39.30 | 286 | 133 |
| 53 | TinFoilMkIV | 1:39.34 | 279 | 129 |
| 54 | Charlotte | 1:39.35 | 272 | 126 |
| 55 | DisQorded | 1:39.37 | 266 | 123 |
| 56 | CeruleanAzura | 1:39.41 | 259 | 120 |
| 57 | Warriot | 1:39.46 | 252 | 117 |
| 58 | Casmo | 1:39.47 | 246 | 114 |
| 59 | A.K.S. | 1:39.50 | 239 | 111 |
| 60 | Dimitri | 1:39.55 | 232 | 108 |
| 61 | Asinay | 1:39.56 | 226 | 105 |
| 61 | tylercreamer | 1:39.56 | 226 | 105 |
| 63 | Winter's Crescendo | 1:39.59 | 213 | 99 |
| 64 | Chipboard | 1:39.63 | 207 | 96 |
| 65 | Samn | 1:39.67 | 200 | 93 |
| 66 | sacrafish | 1:39.69 | 194 | 90 |
| 67 | [BIT]IroncladWarbear | 1:39.72 | 188 | 87 |
| 68 | Saint Pierre | 1:39.73 | 182 | 84 |
| 69 | Ruudy~Pandy | 1:39.74 | 176 | 82 |
| 70 | Azure | 1:39.76 | 170 | 79 |
| 71 | FluffyTheZombii | 1:39.83 | 164 | 76 |
| 71 | Lin | 1:39.83 | 164 | 76 |
| 73 | Mud | 1:39.90 | 152 | 71 |
| 73 | Dreigo | 1:39.90 | 152 | 71 |
| 73 | Cmacle | 1:39.90 | 152 | 71 |
| 76 | Minecraft-pro | 1:39.91 | 134 | 62 |
| 77 | onyxglow | 1:39.97 | 129 | 60 |
| 78 | skuzzzy | 1:40.01 | 123 | 57 |
| 78 | Shaka | 1:40.01 | 123 | 57 |
| 80 | pcl219 | 1:40.02 | 112 | 52 |
| 80 | kaasworst | 1:40.02 | 112 | 52 |
| 82 | XMeatPounder99X | 1:40.04 | 100 | 46 |
| 83 | Kinix | 1:40.10 | 95 | 44 |
| 84 | Misaki 💜 | 1:40.13 | 89 | 41 |
| 85 | snugglebottom | 1:40.21 | 84 | 39 |
| 86 | ShoobFloof22 | 1:40.23 | 79 | 37 |
| 86 | Saphira Kai | 1:40.23 | 79 | 37 |
| 88 | Domino | 1:40.24 | 68 | 32 |
| 89 | Tiyenti | 1:40.25 | 62 | 29 |
| 90 | TheEvilMidnightBomber | 1:40.26 | 57 | 26 |
| 91 | MlleNatalya | 1:40.28 | 52 | 24 |
| 92 | Fleabag | 1:40.33 | 47 | 22 |
| 93 | SherryCoco♪♫ | 1:40.34 | 41 | 19 |
| 94 | DefenderOfHyrule | 1:40.38 | 36 | 17 |
| 94 | Sinner | 1:40.38 | 36 | 17 |
| 96 | TP-N.co PC-118 B-10001110101 | 1:40.39 | 26 | 12 |
| 97 | ThatOneFastGuy | 1:40.40 | 21 | 10 |
| 98 | Dislin | 1:40.44 | 16 | 7 |
| 99 | JacquetheRipper | 1:40.45 | 11 | 5 |
| 100 | Holo | 1:40.47 | 6 | 3 |
| 101 | DPftw | 1:40.49 | 0 | 0 |
| 102 | Wolf | 1:40.55 | 0 | 0 |
| 102 | MeiBunny | 1:40.55 | 0 | 0 |
| 104 | lord commander | 1:40.56 | 0 | 0 |
| 105 | Sidewinder Fang | 1:40.58 | 0 | 0 |
| 106 | sour | 1:40.59 | 0 | 0 |
| 107 | Backgrounds' | 1:40.61 | 0 | 0 |
| 108 | Jarminx | 1:40.62 | 0 | 0 |
| 109 | Тайно дёргал | 1:40.63 | 0 | 0 |
| 110 | jason | 1:40.64 | 0 | 0 |
| 111 | Buck | 1:40.65 | 0 | 0 |
| 111 | Simon Evo | 1:40.65 | 0 | 0 |
| 113 | gp | 1:40.74 | 0 | 0 |
| 114 | Beefro | 1:40.77 | 0 | 0 |
| 114 | ICYVEVO | 1:40.77 | 0 | 0 |
| 116 | Ironside451 | 1:40.82 | 0 | 0 |
| 117 | Cptnbean | 1:40.84 | 0 | 0 |
| 118 | Earthnuker | 1:40.86 | 0 | 0 |
| 118 | lift your tail for me | 1:40.86 | 0 | 0 |
| 120 | Myogi Night | 1:40.87 | 0 | 0 |
| 121 | Skafloodle | 1:40.91 | 0 | 0 |
| 121 | Heajol | 1:40.91 | 0 | 0 |
| 123 | ΣlectrσWingPixy | 1:40.92 | 0 | 0 |
| 124 | Scott, The Texas Ham | 1:40.93 | 0 | 0 |
| 125 | imxRaven | 1:40.94 | 0 | 0 |
| 125 | MERC | 1:40.94 | 0 | 0 |
| 127 | FOG BLAST THE VENT CORE | 1:40.96 | 0 | 0 |
| 128 | MyurrDurr | 1:40.97 | 0 | 0 |
| 128 | generally incompetent | 1:40.97 | 0 | 0 |
| 130 | NoBody | 1:40.98 | 0 | 0 |
| 131 | Joti | 1:40.99 | 0 | 0 |
| 132 | HockeyHero7 | 1:41.02 | 0 | 0 |
| 132 | Zeta | 1:41.02 | 0 | 0 |
| 134 | SirDan | 1:41.06 | 0 | 0 |
| 135 | Kru | 1:41.08 | 0 | 0 |
| 136 | Orion | 1:41.11 | 0 | 0 |
| 136 | BigThiccYeet | 1:41.11 | 0 | 0 |
| 138 | Skuzzles | 1:41.13 | 0 | 0 |
| 138 | AmberEmpress | 1:41.13 | 0 | 0 |
| 140 | khrisround2 | 1:41.19 | 0 | 0 |
| 140 | NightxBandit | 1:41.19 | 0 | 0 |
| 142 | sanchos | 1:41.21 | 0 | 0 |
| 143 | TS_Mind_Swept | 1:41.24 | 0 | 0 |
| 144 | post_red | 1:41.30 | 0 | 0 |
| 145 | PurpleSuede | 1:41.31 | 0 | 0 |
| 145 | GTNeon | 1:41.31 | 0 | 0 |
| 147 | Cyxxus | 1:41.32 | 0 | 0 |
| 147 | MachiVT | TTV | 1:41.32 | 0 | 0 |
| 149 | Razgriez | 1:41.35 | 0 | 0 |
| 149 | < blank > | 1:41.35 | 0 | 0 |
| 151 | HeadphoneDevil | 1:41.42 | 0 | 0 |
| 152 | Yes. Orochi awaken | 1:41.43 | 0 | 0 |
| 153 | <edgyname> | 1:41.48 | 0 | 0 |
| 154 | Splat | 1:41.51 | 0 | 0 |
| 155 | Aespher | 1:41.53 | 0 | 0 |
| 155 | BugJams | 1:41.53 | 0 | 0 |
| 155 | Bahy | 1:41.53 | 0 | 0 |
| 158 | Fleet Foxes Enjoyer | 1:41.54 | 0 | 0 |
| 159 | Nexus | 1:41.57 | 0 | 0 |
| 159 | SupaSnor | 1:41.57 | 0 | 0 |
| 159 | BlackKnightPraetor16 | 1:41.57 | 0 | 0 |
| 162 | Lilith Torres | 1:41.59 | 0 | 0 |
| 162 | Starfarer14 | 1:41.59 | 0 | 0 |
| 164 | ViryGo19 | 1:41.61 | 0 | 0 |
| 165 | ^1WᴀʀᴘWɪʀᴇ | 1:41.65 | 0 | 0 |
| 165 | TheBoredguyyy | 1:41.65 | 0 | 0 |
| 167 | A very silly man indeed | 1:41.70 | 0 | 0 |
| 167 | Sunchipp Games | 1:41.70 | 0 | 0 |
| 169 | Joan6694 | 1:41.73 | 0 | 0 |
| 170 | Portal Blinx | 1:41.74 | 0 | 0 |
| 171 | LittleKittyArtemis | 1:41.76 | 0 | 0 |
| 172 | THE FINAL LOSER | 1:41.80 | 0 | 0 |
| 172 | Dorphan | 1:41.80 | 0 | 0 |
| 174 | Other XIX | 1:41.81 | 0 | 0 |
| 175 | Curious Fish | 1:41.82 | 0 | 0 |
| 176 | Shinchi Shiroi | 1:41.86 | 0 | 0 |
| 177 | PowerMeep | 1:41.89 | 0 | 0 |
| 178 | TheDukeOfTaco | 1:41.92 | 0 | 0 |
| 179 | CrazyMaurice120 | 1:41.96 | 0 | 0 |
| 179 | Racoonboi | 1:41.96 | 0 | 0 |
| 179 | sizifov | 1:41.96 | 0 | 0 |
| 182 | FluxChaos | 1:41.99 | 0 | 0 |
| 183 | roversalad | 1:42.01 | 0 | 0 |
| 183 | [RC] | 1:42.01 | 0 | 0 |
| 185 | Pepino | 1:42.02 | 0 | 0 |
| 185 | Dutesao | 1:42.02 | 0 | 0 |
| 187 | Krogoth | 1:42.04 | 0 | 0 |
| 187 | Sensokaku | 1:42.04 | 0 | 0 |
| 187 | Flak37AAA | 1:42.04 | 0 | 0 |
| 190 | Hovex the Spider | 1:42.05 | 0 | 0 |
| 191 | CableBox64 | 1:42.06 | 0 | 0 |
| 192 | Dosilox | 1:42.07 | 0 | 0 |
| 192 | DANTE_101 | 1:42.07 | 0 | 0 |
| 192 | AMOLED | 1:42.07 | 0 | 0 |
| 195 | GaiaGaiyus | 1:42.12 | 0 | 0 |
| 196 | Kepslok | 1:42.13 | 0 | 0 |
| 196 | porta2note | 1:42.13 | 0 | 0 |
| 198 | sounder129 | 1:42.14 | 0 | 0 |
| 199 | LordBohne2 | 1:42.15 | 0 | 0 |
| 200 | exai | 1:42.17 | 0 | 0 |
| 201 | Disatroja | 1:42.20 | 0 | 0 |
| 201 | Sugoi-desu (⊙‿⊙✿) | 1:42.20 | 0 | 0 |
| 203 | Therio | 1:42.22 | 0 | 0 |
| 204 | Kypar | 1:42.23 | 0 | 0 |
| 205 | Sal safado molestador | 1:42.27 | 0 | 0 |
| 206 | McSteven | 1:42.28 | 0 | 0 |
| 206 | LeFluffySquirrel | 1:42.28 | 0 | 0 |
| 208 | Sir Johan | 1:42.32 | 0 | 0 |
| 209 | ReallyDumbFox | 1:42.33 | 0 | 0 |
| 210 | TheMelonGod | 1:42.35 | 0 | 0 |
| 211 | Lampshaede | 1:42.43 | 0 | 0 |
| 212 | CloudBirb | 1:42.44 | 0 | 0 |
| 212 | andyLerda | 1:42.44 | 0 | 0 |
| 214 | MasterJedi2014 | 1:42.45 | 0 | 0 |
| 215 | MIAT | 1:42.52 | 0 | 0 |
| 216 | SMUG KITTY | 1:42.55 | 0 | 0 |
| 217 | A Moldy Orange | 1:42.58 | 0 | 0 |
| 218 | 1:42.59 | 0 | 0 | |
| 219 | Fromage | 1:42.68 | 0 | 0 |
| 219 | KoloPa | 1:42.68 | 0 | 0 |
| 221 | Meda | 1:42.74 | 0 | 0 |
| 221 | Rurtanar | 1:42.74 | 0 | 0 |
| 223 | Viking_king | 1:42.76 | 0 | 0 |
| 224 | Muggestutz | 1:42.77 | 0 | 0 |
| 225 | ahtnos | 1:42.85 | 0 | 0 |
| 225 | thom6777 | 1:42.85 | 0 | 0 |
| 227 | Kiera.mp4 | 1:42.86 | 0 | 0 |
| 228 | SneakySN | 1:42.90 | 0 | 0 |
| 229 | Host | 1:42.92 | 0 | 0 |
| 229 | JohnCorby | 1:42.92 | 0 | 0 |
| 231 | Enzyme Machine | 1:42.96 | 0 | 0 |
| 232 | Blade | 1:42.97 | 0 | 0 |
| 233 | PineFreshGuy | 1:42.99 | 0 | 0 |
| 234 | EnVyUs- yng jit | 1:43.01 | 0 | 0 |
| 235 | SpicySpaceSnake | 1:43.06 | 0 | 0 |
| 236 | theninjacat799 | 1:43.07 | 0 | 0 |
| 237 | jetknife | 1:43.09 | 0 | 0 |
| 238 | LOLO FAK | 1:43.10 | 0 | 0 |
| 239 | toniqe53 | 1:43.11 | 0 | 0 |
| 240 | Squishy Vicky | 1:43.12 | 0 | 0 |
| 241 | Zuper Greek | 1:43.21 | 0 | 0 |
| 242 | Sømand | 1:43.22 | 0 | 0 |
| 242 | endergecko1218 | 1:43.22 | 0 | 0 |
| 244 | Vega | 1:43.29 | 0 | 0 |
| 245 | EonShark | 1:43.34 | 0 | 0 |
| 246 | Overlord | 1:43.35 | 0 | 0 |
| 247 | Ral | 1:43.39 | 0 | 0 |
| 248 | Shooter | 1:43.72 | 0 | 0 |
| 248 | Nick Elements | 1:43.72 | 0 | 0 |
| 250 | Ren-Ren | 1:43.85 | 0 | 0 |
| 251 | adamvmoore1983 | 1:43.87 | 0 | 0 |
| 252 | GravitationalSingularity | 1:43.97 | 0 | 0 |
| 253 | Arphey01 | 1:44.03 | 0 | 0 |
| 254 | SneakySnek | 1:44.08 | 0 | 0 |
| 255 | Well Shit | 1:44.10 | 0 | 0 |
| 256 | DROCHEPOLK | 1:44.24 | 0 | 0 |
| 257 | Pissant (DX Cut) | 1:44.30 | 0 | 0 |
| 258 | 1Hp♰ | 1:44.42 | 0 | 0 |
| 259 | Хз Ястреб | 1:44.43 | 0 | 0 |
| 260 | DSmiitty | 1:44.46 | 0 | 0 |
| 261 | Dracheron | 1:44.52 | 0 | 0 |
| 262 | markschuurman1990 | 1:44.67 | 0 | 0 |
| 263 | WiteNite | 1:44.69 | 0 | 0 |
| 264 | Iris | 1:44.71 | 0 | 0 |
| 265 | kriz_chan | 1:44.76 | 0 | 0 |
| 266 | krashy | 1:44.85 | 0 | 0 |
| 267 | Polygonalfish | 1:44.88 | 0 | 0 |
| 267 | DieselFace | 1:44.88 | 0 | 0 |
| 269 | Flex | 1:44.89 | 0 | 0 |
| 270 | Dante | 1:44.99 | 0 | 0 |
| 271 | Sephyrias | 1:45.06 | 0 | 0 |
| 272 | Eagl3 | 1:45.09 | 0 | 0 |
| 273 | Slater | 1:45.28 | 0 | 0 |
| 274 | kivito | 1:45.29 | 0 | 0 |
| 275 | KriaanZol CXV [TTV] | 1:45.55 | 0 | 0 |
| 276 | Prof. Pinwheel | 1:45.57 | 0 | 0 |
| 277 | SWAT | 1:45.69 | 0 | 0 |
| 278 | Old Bastard | 1:45.76 | 0 | 0 |
| 279 | VI_fizz | 1:46.17 | 0 | 0 |
| 279 | Jeats | 1:46.17 | 0 | 0 |
| 281 | Pointed Mammal29 | 1:46.20 | 0 | 0 |
| 282 | torcht | 1:46.22 | 0 | 0 |
| 283 | jemy | 1:46.29 | 0 | 0 |
| 284 | Ploogus | 1:46.37 | 0 | 0 |
| 285 | Jam0344 | 1:46.49 | 0 | 0 |
| 286 | SmolSucc | 1:46.62 | 0 | 0 |
| 287 | Verdor | 1:46.67 | 0 | 0 |
| 288 | Slax_ | 1:46.71 | 0 | 0 |
| 289 | Seinah | 1:46.79 | 0 | 0 |
| 290 | Lud | Forest | 1:46.84 | 0 | 0 |
| 291 | TG300 | 1:46.95 | 0 | 0 |
| 292 | samson13 | 1:46.98 | 0 | 0 |
| 292 | Moxie | 1:46.98 | 0 | 0 |
| 294 | Snowstrike | 1:47.04 | 0 | 0 |
| 295 | PantoGoose | 1:47.25 | 0 | 0 |
| 296 | [BKH]no-please | 1:47.28 | 0 | 0 |
| 296 | Azzmurr | 1:47.28 | 0 | 0 |
| 298 | !HPN!*1*P.NOEL | 1:47.32 | 0 | 0 |
| 299 | Moods | 1:47.41 | 0 | 0 |
| 300 | Lliane | 1:47.43 | 0 | 0 |
| 301 | irken | 1:47.47 | 0 | 0 |
| 302 | EnderKill98 | 1:47.67 | 0 | 0 |
| 303 | Kibōchen | 1:47.72 | 0 | 0 |
| 304 | Xela | 1:47.83 | 0 | 0 |
| 305 | DkW | 1:47.96 | 0 | 0 |
| 306 | Andy95 | 1:47.97 | 0 | 0 |
| 307 | Acidic_Axeman | 1:48.15 | 0 | 0 |
| 308 | Dusty | 1:48.31 | 0 | 0 |
| 309 | Greenfire DX | 1:48.60 | 0 | 0 |
| 310 | Loys Nuva | 1:48.68 | 0 | 0 |
| 310 | Neruvac | 1:48.68 | 0 | 0 |
| 312 | rexy | 1:48.83 | 0 | 0 |
| 313 | UnFefeSauvage | 1:49.06 | 0 | 0 |
| 314 | WhittJS | 1:49.14 | 0 | 0 |
| 315 | BedrokiV | 1:49.20 | 0 | 0 |
| 315 | Breno_SO | 1:49.20 | 0 | 0 |
| 317 | N.E.X.U.S | 1:49.24 | 0 | 0 |
| 318 | Mambo | 1:49.71 | 0 | 0 |
| 319 | Spearmint | 1:49.75 | 0 | 0 |
| 320 | Lord G | 1:49.80 | 0 | 0 |
| 321 | Chase | 1:50.02 | 0 | 0 |
| 322 | kevinlakecity5 | 1:50.03 | 0 | 0 |
| 323 | Alex | 1:50.09 | 0 | 0 |
| 324 | -≺Zinc≻- | 1:50.23 | 0 | 0 |
| 325 | Slender19rus | 1:50.47 | 0 | 0 |
| 326 | Epsilon_Knight | 1:50.60 | 0 | 0 |
| 326 | Misc23 | 1:50.60 | 0 | 0 |
| 328 | KWP | 1:50.75 | 0 | 0 |
| 329 | JankyDingus | 1:50.78 | 0 | 0 |
| 330 | 時雨 | 1:50.95 | 0 | 0 |
| 331 | ルイーズ | 1:51.04 | 0 | 0 |
| 332 | Sev | 1:51.14 | 0 | 0 |
| 332 | Cloudy | 1:51.14 | 0 | 0 |
| 334 | FifteenBread | 1:51.15 | 0 | 0 |
| 335 | Ayre | 1:51.20 | 0 | 0 |
| 336 | zZCENTURIONZz | 1:51.22 | 0 | 0 |
| 337 | Maus | 1:51.26 | 0 | 0 |
| 338 | Carl | 1:51.41 | 0 | 0 |
| 339 | Swizy | 1:51.57 | 0 | 0 |
| 340 | snugy_wumpkins [TNF] | 1:51.65 | 0 | 0 |
| 341 | Neon_Shift | 1:51.71 | 0 | 0 |
| 342 | unsthuthn | 1:51.74 | 0 | 0 |
| 343 | FireflashGote | 1:51.77 | 0 | 0 |
| 344 | HyperNova | 1:51.86 | 0 | 0 |
| 345 | Xaiux | 1:51.89 | 0 | 0 |
| 346 | D2C | Chrisc02 | 1:51.99 | 0 | 0 |
| 347 | DarkEnforcer | 1:52.01 | 0 | 0 |
| 348 | Jace | 1:52.16 | 0 | 0 |
| 349 | the Bear of the Web | 1:52.40 | 0 | 0 |
| 350 | Pompous Whale | 1:52.46 | 0 | 0 |
| 351 | Yo Yo Piraka | 1:52.59 | 0 | 0 |
| 352 | BesRezen | 1:52.62 | 0 | 0 |
| 353 | TheWanderer05 | 1:52.63 | 0 | 0 |
| 354 | An Innocuous Chef | 1:52.65 | 0 | 0 |
| 355 | CatMeme | 1:52.72 | 0 | 0 |
| 356 | Vulduv | 1:52.92 | 0 | 0 |
| 357 | NO!SE | 1:53.11 | 0 | 0 |
| 358 | Jester Thomas | 1:53.30 | 0 | 0 |
| 359 | SepiSP5 | 1:53.60 | 0 | 0 |
| 360 | Beastmaster 64 | 1:53.62 | 0 | 0 |
| 361 | Weskil | 1:53.79 | 0 | 0 |
| 362 | Kaffeeclutch | 1:53.83 | 0 | 0 |
| 363 | GetEmOtterHere | 1:54.01 | 0 | 0 |
| 364 | iamelementalsword | 1:54.06 | 0 | 0 |
| 365 | Ae1oURed | 1:54.15 | 0 | 0 |
| 366 | San | 1:54.30 | 0 | 0 |
| 367 | Etcetera_Naut | 1:54.55 | 0 | 0 |
| 368 | Hekko | 1:54.70 | 0 | 0 |
| 369 | Sooth | 1:54.78 | 0 | 0 |
| 370 | fightman | 1:54.83 | 0 | 0 |
| 371 | lefor0416 | 1:54.96 | 0 | 0 |
| 372 | Pkaradactyl | 1:55.11 | 0 | 0 |
| 373 | AngelsBane13 | 1:55.19 | 0 | 0 |
| 374 | Monark10 | 1:55.21 | 0 | 0 |
| 375 | Seere | 1:55.31 | 0 | 0 |
| 375 | DOOM | 1:55.31 | 0 | 0 |
| 375 | zombieassaultman | 1:55.31 | 0 | 0 |
| 378 | soba-chan | 1:55.52 | 0 | 0 |
| 379 | HJQLF | 1:55.54 | 0 | 0 |
| 380 | SlightEye | 1:55.61 | 0 | 0 |
| 381 | Adrimg_rider | 1:55.65 | 0 | 0 |
| 382 | Negaprion | 1:55.77 | 0 | 0 |
| 383 | DriveOffTheCliff | 1:55.83 | 0 | 0 |
| 384 | Rombommind | 1:55.94 | 0 | 0 |
| 385 | Nibiria | 1:56.05 | 0 | 0 |
| 386 | Žydras | 1:56.51 | 0 | 0 |
| 387 | ]khaytso[ | 1:56.70 | 0 | 0 |
| 388 | defyhengin | 1:56.72 | 0 | 0 |
| 389 | delicious Croutons | 1:56.73 | 0 | 0 |
| 390 | Ryuki | 1:56.76 | 0 | 0 |
| 391 | Kitsune's_GALAXY | 1:56.81 | 0 | 0 |
| 392 | kildert5 | 1:57.00 | 0 | 0 |
| 393 | Booler | 1:57.04 | 0 | 0 |
| 394 | Dipno | 1:57.23 | 0 | 0 |
| 395 | Pond_King | 1:57.37 | 0 | 0 |
| 396 | Sogram | 1:57.43 | 0 | 0 |
| 397 | Jacsn | 1:57.58 | 0 | 0 |
| 398 | Sayakure | 1:57.59 | 0 | 0 |
| 399 | HeyImWilliam | 1:57.61 | 0 | 0 |
| 400 | HyperNova | 1:57.64 | 0 | 0 |
| 401 | sylvan | 1:57.89 | 0 | 0 |
| 402 | dcawthon41 | 1:57.90 | 0 | 0 |
| 403 | Diabetis4life | 1:58.01 | 0 | 0 |
| 404 | Lainfall | 1:58.18 | 0 | 0 |
| 405 | Ktee | 1:58.26 | 0 | 0 |
| 406 | justpeace.jp | 1:58.38 | 0 | 0 |
| 407 | Me0wzipan | 1:58.43 | 0 | 0 |
| 408 | Zabava | 1:58.69 | 0 | 0 |
| 409 | [iNk] Primus | 1:59.21 | 0 | 0 |
| 410 | EkinoxTHC | 1:59.38 | 0 | 0 |
| 411 | Mr. Toasty | 1:59.47 | 0 | 0 |
| 412 | Hightree | 1:59.48 | 0 | 0 |
| 413 | Dango | 1:59.54 | 0 | 0 |
| 414 | dame.najdov | 1:59.68 | 0 | 0 |
| 415 | Apocalyptic Bunny | 1:59.88 | 0 | 0 |
| 416 | Xandrak | 1:59.95 | 0 | 0 |
| 417 | Fergunnar | 1:59.98 | 0 | 0 |
| 418 | GAMEMASTER-THX | 1:59.99 | 0 | 0 |
| 419 | calne | 2:00.00 | 0 | 0 |
| 420 | NeonChaosAwoo | 2:00.06 | 0 | 0 |
| 421 | Melancholy | 2:00.13 | 0 | 0 |
| 422 | TheFluffyDragon/JBSTheGamer | 2:00.15 | 0 | 0 |
| 423 | Moon | 2:00.45 | 0 | 0 |
| 424 | shsnuzzle | 2:00.58 | 0 | 0 |
| 425 | 장기마스터 | 2:01.17 | 0 | 0 |
| 426 | Tenth | 2:01.28 | 0 | 0 |
| 427 | MAT D.R.⎛⎝≥⏝⏝≤⎠⎞ | 2:01.45 | 0 | 0 |
| 427 | Jerico Pepino | 2:01.45 | 0 | 0 |
| 429 | Tigerfoxtrot | 2:01.51 | 0 | 0 |
| 430 | Owem | 2:01.73 | 0 | 0 |
| 431 | RAID [TaPaKaH] | 2:01.87 | 0 | 0 |
| 432 | Mr Elusive | 2:02.11 | 0 | 0 |
| 433 | BEZDARZ | 2:02.32 | 0 | 0 |
| 434 | DomNation | 2:02.43 | 0 | 0 |
| 435 | Calcarious | 2:02.86 | 0 | 0 |
| 436 | MystykZ | 2:02.90 | 0 | 0 |
| 437 | Achiro | 2:03.10 | 0 | 0 |
| 438 | Wallflower | 2:03.21 | 0 | 0 |
| 439 | Ryowulf768 | 2:03.41 | 0 | 0 |
| 440 | puca | 2:03.59 | 0 | 0 |
| 441 | Koordinator O | 2:03.63 | 0 | 0 |
| 442 | Norz-Öril'Kern | 2:03.66 | 0 | 0 |
| 443 | wifi | 2:03.81 | 0 | 0 |
| 444 | Jesster | 2:03.97 | 0 | 0 |
| 445 | Delta | 2:03.98 | 0 | 0 |
| 446 | Artifact | 2:04.79 | 0 | 0 |
| 447 | rainbowwhirl | 2:05.03 | 0 | 0 |
| 448 | bogassado | 2:05.07 | 0 | 0 |
| 449 | Tuli | 2:05.28 | 0 | 0 |
| 450 | Pomel ⛟ | 2:05.31 | 0 | 0 |
| 451 | LlamaOP | 2:05.80 | 0 | 0 |
| 452 | Dyltra | 2:06.85 | 0 | 0 |
| 453 | LDDestroier | 2:07.38 | 0 | 0 |
| 454 | Harue Kuma | 2:07.77 | 0 | 0 |
| 455 | mrg.dem | 2:07.91 | 0 | 0 |
| 456 | Creepersrock24Gaming | 2:08.02 | 0 | 0 |
| 457 | Clockaru | 2:08.21 | 0 | 0 |
| 458 | Emerald_Pick | 2:08.23 | 0 | 0 |
| 459 | TartanKitty773 | 2:08.29 | 0 | 0 |
| 460 | Crunchy Dead Corpse | 2:08.46 | 0 | 0 |
| 461 | koido | 2:08.53 | 0 | 0 |
| 462 | Neopolitan Sky | 2:09.11 | 0 | 0 |
| 463 | Weird Pumpkin | 2:09.20 | 0 | 0 |
| 464 | Makiki🐑 | 2:09.40 | 0 | 0 |
| 465 | blindowl23 | 2:09.57 | 0 | 0 |
| 466 | Jimmy Gibbs | 2:09.75 | 0 | 0 |
| 467 | SirEldricht | 2:10.43 | 0 | 0 |
| 468 | Bdine | 2:10.47 | 0 | 0 |
| 469 | Mango | 2:10.50 | 0 | 0 |
| 470 | Baricus | 2:10.51 | 0 | 0 |
| 471 | Pink Naruto | 2:10.60 | 0 | 0 |
| 472 | Yuji Itadori | 2:10.63 | 0 | 0 |
| 473 | TheLastSoL | 2:11.02 | 0 | 0 |
| 474 | fischpferd | 2:11.52 | 0 | 0 |
| 475 | FyreWall | 2:11.58 | 0 | 0 |
| 476 | NK - Néko | 2:11.70 | 0 | 0 |
| 477 | Xyte | 2:11.83 | 0 | 0 |
| 478 | Medical Services | 2:12.26 | 0 | 0 |
| 479 | Lena_thePilot | 2:12.27 | 0 | 0 |
| 480 | Mossy Shush | 2:12.50 | 0 | 0 |
| 481 | Khailz | 2:12.79 | 0 | 0 |
| 482 | Random Human Being? | 2:12.86 | 0 | 0 |
| 483 | tipek360 | 2:12.89 | 0 | 0 |
| 484 | Melty | 2:12.90 | 0 | 0 |
| 485 | Pouze Jeden | 2:13.14 | 0 | 0 |
| 486 | Professor Scrub | 2:13.19 | 0 | 0 |
| 487 | Minefreak6633 | 2:13.59 | 0 | 0 |
| 488 | Uranos | 2:13.61 | 0 | 0 |
| 489 | Mar_Veloz | 2:13.90 | 0 | 0 |
| 490 | R1ow1ls | 2:13.94 | 0 | 0 |
| 491 | Skrigar | 2:14.08 | 0 | 0 |
| 492 | danny1234331 | 2:14.42 | 0 | 0 |
| 492 | The_purple_dude | 2:14.42 | 0 | 0 |
| 494 | Thoughtless | 2:14.65 | 0 | 0 |
| 495 | tyon25 | 2:14.90 | 0 | 0 |
| 496 | jmlog796 | 2:15.64 | 0 | 0 |
| 497 | Tokyo. | 2:15.68 | 0 | 0 |
| 498 | Yipp | 2:15.75 | 0 | 0 |
| 499 | bq | 2:15.85 | 0 | 0 |
| 500 | Kuju_Kuju | 2:17.48 | 0 | 0 |
| 501 | SuperSamTheHamTV | 2:17.62 | 0 | 0 |
| 502 | StephanoLight | 2:18.86 | 0 | 0 |
| 503 | brdg | 2:19.06 | 0 | 0 |
| 504 | L4v4 | 2:19.82 | 0 | 0 |
| 505 | [REDACTED] | 2:20.48 | 0 | 0 |
| 506 | Jos | 2:22.00 | 0 | 0 |
| 507 | Z-Noisy | 2:22.25 | 0 | 0 |
| 508 | marf | 2:22.75 | 0 | 0 |
| 509 | siafa | 2:22.95 | 0 | 0 |
| 510 | SkyCaptain502 | 2:23.88 | 0 | 0 |
| 511 | Summer | 2:24.07 | 0 | 0 |
| 512 | AlveKatt | 2:24.13 | 0 | 0 |
| 513 | Qioury | 2:24.98 | 0 | 0 |
| 514 | bloodorangesunrise | 2:25.06 | 0 | 0 |
| 515 | Joshy Grind | 2:25.16 | 0 | 0 |
| 516 | gfa7x | 2:26.32 | 0 | 0 |
| 517 | Death Edge | 2:26.53 | 0 | 0 |
| 518 | Pinapl | 2:27.07 | 0 | 0 |
| 519 | TekuGen | 2:27.09 | 0 | 0 |
| 520 | TheIllusiveGreg | 2:27.21 | 0 | 0 |
| 521 | HimeraPlay | 2:27.32 | 0 | 0 |
| 522 | Parasyte | 2:28.22 | 0 | 0 |
| 523 | MOCOCHINCHOL | 2:28.38 | 0 | 0 |
| 524 | McChillin | 2:29.25 | 0 | 0 |
| 525 | Upland | 2:29.43 | 0 | 0 |
| 526 | Tom Bergeron | 2:29.54 | 0 | 0 |
| 527 | IchbinLuka | 2:29.57 | 0 | 0 |
| 528 | Шоколадка:) | 2:29.76 | 0 | 0 |
| 529 | Skrall' | 2:30.03 | 0 | 0 |
| 530 | joltz | 2:30.07 | 0 | 0 |
| 531 | Peaceful | 2:30.18 | 0 | 0 |
| 532 | Jupiter One | 2:30.93 | 0 | 0 |
| 533 | Zaraza_ | 2:31.03 | 0 | 0 |
| 534 | Ethril_Swifthawk | 2:31.25 | 0 | 0 |
| 535 | Mr Chip | 2:31.47 | 0 | 0 |
| 536 | Meanguy6050 | 2:31.68 | 0 | 0 |
| 537 | PΙCΛPΙCΔ | 2:31.70 | 0 | 0 |
| 538 | Jizzneyland | 2:31.72 | 0 | 0 |
| 539 | Pog ! | 2:31.90 | 0 | 0 |
| 540 | The Stig | 2:33.47 | 0 | 0 |
| 541 | Coconut | 2:33.98 | 0 | 0 |
| 542 | Peanut | 2:34.06 | 0 | 0 |
| 543 | bones4456 | 2:34.30 | 0 | 0 |
| 544 | kal3cy | 2:34.49 | 0 | 0 |
| 545 | Milk | 2:35.32 | 0 | 0 |
| 546 | Gunn Galt | 2:35.70 | 0 | 0 |
| 547 | Dropkick | 2:35.94 | 0 | 0 |
| 548 | WesleyGPS | 2:37.63 | 0 | 0 |
| 549 | Sailer | 2:38.19 | 0 | 0 |
| 550 | Agaladam | 2:38.68 | 0 | 0 |
| 551 | BryhanFine | 2:40.70 | 0 | 0 |
| 552 | CCmagic | 2:40.75 | 0 | 0 |
| 553 | Kavracostra ˢᶜᶜᵖ | 2:41.01 | 0 | 0 |
| 554 | dude9000 | 2:41.51 | 0 | 0 |
| 555 | narkk | 2:42.05 | 0 | 0 |
| 556 | Breezy™ | 2:44.04 | 0 | 0 |
| 557 | xp | 2:45.28 | 0 | 0 |
| 558 | Mac_SirBlickith | 2:46.10 | 0 | 0 |
| 559 | TheUnknown | 2:46.16 | 0 | 0 |
| 560 | Wabzi | 2:46.84 | 0 | 0 |
| 561 | Dubfiance | 2:47.29 | 0 | 0 |
| 562 | NonOmnisMoriar | 2:48.51 | 0 | 0 |
| 563 | dantuno1ඞ | 2:48.88 | 0 | 0 |
| 564 | _olivia | 2:49.90 | 0 | 0 |
| 565 | Basan | 2:50.42 | 0 | 0 |
| 566 | Capra Kid | 2:50.52 | 0 | 0 |
| 567 | Krispy | 2:51.51 | 0 | 0 |
| 568 | Shyylock | 2:51.64 | 0 | 0 |
| 569 | ℒℴℴℒ | 2:52.40 | 0 | 0 |
| 570 | super RD | 2:52.57 | 0 | 0 |
| 571 | strawberry | 2:53.91 | 0 | 0 |
| 572 | pomegranate juice concentrate | 2:54.71 | 0 | 0 |
| 573 | Drandy | 2:54.74 | 0 | 0 |
| 574 | TwoFace | 2:55.20 | 0 | 0 |
| 575 | Bokura | 2:56.17 | 0 | 0 |
| 576 | гладкий виталя | 2:56.78 | 0 | 0 |
| 577 | zorankid | 2:56.94 | 0 | 0 |
| 578 | bmrc97 | 2:57.98 | 0 | 0 |
| 579 | Loner pucta | 2:58.47 | 0 | 0 |
| 580 | Donkey | 2:58.76 | 0 | 0 |
| 581 | Jack | 2:59.46 | 0 | 0 |
| 582 | ToxicDeity | 3:00.51 | 0 | 0 |
| 583 | Twiloore | 3:00.76 | 0 | 0 |
| 584 | SC000TER | 3:01.32 | 0 | 0 |
| 585 | Giant From The East | 3:02.08 | 0 | 0 |
| 586 | artifichell | 3:02.48 | 0 | 0 |
| 587 | nei720 | 3:02.77 | 0 | 0 |
| 588 | Horus1939 | 3:03.33 | 0 | 0 |
| 589 | Alex1on | 3:03.80 | 0 | 0 |
| 590 | MusicPilot n.5 | 3:04.08 | 0 | 0 |
| 591 | Dydd84 | 3:04.87 | 0 | 0 |
| 592 | MatteCrystal | 3:05.84 | 0 | 0 |
| 593 | Eyes | 3:08.01 | 0 | 0 |
| 594 | ResistiveWig6 | 3:10.55 | 0 | 0 |
| 595 | Kecha | 3:11.75 | 0 | 0 |
| 596 | AJCaliber | 3:12.49 | 0 | 0 |
| 597 | Midnight Purple | 3:13.91 | 0 | 0 |
| 598 | meziter260 | 3:14.35 | 0 | 0 |
| 599 | Arctic, inventor of sliced bread | 3:21.54 | 0 | 0 |
| 600 | Sunzara | 3:23.08 | 0 | 0 |
| 601 | Soraishollow | 3:23.17 | 0 | 0 |
| 602 | epicforger12345 | 3:25.19 | 0 | 0 |
| 603 | RozaldVane | 3:28.17 | 0 | 0 |
| 604 | Oolong | 3:31.51 | 0 | 0 |
| 605 | 54mm7 | 3:35.77 | 0 | 0 |
| 606 | . | 3:37.25 | 0 | 0 |
| 607 | MrSandro | 3:42.47 | 0 | 0 |
| 608 | ace20056969 | 3:59.95 | 0 | 0 |
| 609 | Microwave | 4:00.82 | 0 | 0 |
| 610 | enerszon | 4:01.28 | 0 | 0 |
| 611 | 76561198070927040 | 4:07.87 | 0 | 0 |
| 612 | Seshiruseth | 4:08.56 | 0 | 0 |
| 613 | Yang Pjoter II | 4:23.17 | 0 | 0 |
| 614 | GothamAndCheese | 4:41.11 | 0 | 0 |
| 615 | Professor Daleheart | 4:57.19 | 0 | 0 |
| 616 | Samuel9248 | 4:57.93 | 0 | 0 |
| 617 | 。.✿ToasteR✿.。 | 5:07.84 | 0 | 0 |
HoldGrip